sensor_id;sensor_type;location;lat;lon;timestamp;pressure;altitude;pressure_sealevel;temperature;humidity
56514;BME280;62152;52.078;8.414;2023-05-10T00:01:36;99280.81;;;20.01;53.08
56514;BME280;62152;52.078;8.414;2023-05-10T00:05:38;99276.50;;;20.00;53.37
56514;BME280;62152;52.078;8.414;2023-05-10T00:09:39;99266.69;;;19.99;53.06
56514;BME280;62152;52.078;8.414;2023-05-10T00:13:40;99265.50;;;20.00;52.96
56514;BME280;62152;52.078;8.414;2023-05-10T00:17:40;99271.00;;;20.00;53.14
56514;BME280;62152;52.078;8.414;2023-05-10T00:21:43;99266.28;;;19.97;52.86
56514;BME280;62152;52.078;8.414;2023-05-10T00:25:44;99263.53;;;20.00;53.04
56514;BME280;62152;52.078;8.414;2023-05-10T00:29:44;99266.28;;;20.00;52.89
56514;BME280;62152;52.078;8.414;2023-05-10T00:33:45;99262.75;;;20.00;52.54
56514;BME280;62152;52.078;8.414;2023-05-10T00:37:47;99258.81;;;20.01;53.24
56514;BME280;62152;52.078;8.414;2023-05-10T00:41:49;99251.75;;;20.00;52.61
56514;BME280;62152;52.078;8.414;2023-05-10T00:45:51;99247.03;;;20.00;52.33
56514;BME280;62152;52.078;8.414;2023-05-10T00:49:53;99256.47;;;19.95;52.59
56514;BME280;62152;52.078;8.414;2023-05-10T00:53:56;99254.91;;;19.98;52.90
56514;BME280;62152;52.078;8.414;2023-05-10T00:57:57;99258.44;;;19.99;53.05
56514;BME280;62152;52.078;8.414;2023-05-10T01:01:58;99260.00;;;20.00;53.13
56514;BME280;62152;52.078;8.414;2023-05-10T01:05:59;99250.19;;;19.99;53.02
56514;BME280;62152;52.078;8.414;2023-05-10T01:10:01;99253.72;;;19.99;52.68
56514;BME280;62152;52.078;8.414;2023-05-10T01:14:03;99249.78;;;20.00;53.11
56514;BME280;62152;52.078;8.414;2023-05-10T01:18:05;99241.13;;;19.98;52.85
56514;BME280;62152;52.078;8.414;2023-05-10T01:22:31;99250.19;;;19.99;53.05
56514;BME280;62152;52.078;8.414;2023-05-10T01:27:28;99241.13;;;19.98;53.08
56514;BME280;62152;52.078;8.414;2023-05-10T01:32:08;99237.59;;;19.98;53.18
56514;BME280;62152;52.078;8.414;2023-05-10T01:36:26;99243.88;;;19.98;52.66
56514;BME280;62152;52.078;8.414;2023-05-10T01:40:37;99236.81;;;19.97;52.50
56514;BME280;62152;52.078;8.414;2023-05-10T01:44:56;99234.06;;;19.97;52.91
56514;BME280;62152;52.078;8.414;2023-05-10T01:49:05;99243.88;;;19.98;52.92
56514;BME280;62152;52.078;8.414;2023-05-10T01:53:11;99243.13;;;19.98;53.08
56514;BME280;62152;52.078;8.414;2023-05-10T01:57:20;99242.34;;;19.97;52.40
56514;BME280;62152;52.078;8.414;2023-05-10T02:01:27;99243.50;;;19.96;52.60
56514;BME280;62152;52.078;8.414;2023-05-10T02:05:32;99244.28;;;19.97;52.96
56514;BME280;62152;52.078;8.414;2023-05-10T02:09:34;99250.97;;;19.95;52.61
56514;BME280;62152;52.078;8.414;2023-05-10T02:13:39;99255.28;;;19.97;52.77
56514;BME280;62152;52.078;8.414;2023-05-10T02:17:42;99240.34;;;19.98;52.45
56514;BME280;62152;52.078;8.414;2023-05-10T02:21:47;99247.03;;;19.97;52.79
56514;BME280;62152;52.078;8.414;2023-05-10T02:25:51;99251.75;;;19.96;52.78
56514;BME280;62152;52.078;8.414;2023-05-10T02:29:57;99252.53;;;19.97;52.92
56514;BME280;62152;52.078;8.414;2023-05-10T02:34:01;99263.94;;;19.95;52.40
56514;BME280;62152;52.078;8.414;2023-05-10T02:38:07;99253.72;;;19.95;52.45
56514;BME280;62152;52.078;8.414;2023-05-10T02:42:16;99257.66;;;19.94;52.32
56514;BME280;62152;52.078;8.414;2023-05-10T02:46:19;99253.72;;;19.95;52.13
56514;BME280;62152;52.078;8.414;2023-05-10T02:50:22;99244.69;;;19.95;52.85
56514;BME280;62152;52.078;8.414;2023-05-10T02:54:32;99254.91;;;19.94;52.79
56514;BME280;62152;52.078;8.414;2023-05-10T02:58:38;99243.91;;;19.94;52.41
56514;BME280;62152;52.078;8.414;2023-05-10T03:02:39;99244.69;;;19.95;52.65
56514;BME280;62152;52.078;8.414;2023-05-10T03:06:41;99240.38;;;19.94;52.73
56514;BME280;62152;52.078;8.414;2023-05-10T03:10:54;99254.91;;;19.94;52.10
56514;BME280;62152;52.078;8.414;2023-05-10T03:15:13;99249.41;;;19.94;52.40
56514;BME280;62152;52.078;8.414;2023-05-10T03:19:24;99244.69;;;19.95;52.34
56514;BME280;62152;52.078;8.414;2023-05-10T03:23:34;99256.09;;;19.93;52.88
56514;BME280;62152;52.078;8.414;2023-05-10T03:27:42;99244.28;;;19.97;52.25
56514;BME280;62152;52.078;8.414;2023-05-10T03:31:44;99253.34;;;19.97;52.99
56514;BME280;62152;52.078;8.414;2023-05-10T03:35:45;99257.66;;;19.94;52.88
56514;BME280;62152;52.078;8.414;2023-05-10T03:39:47;99260.03;;;19.92;53.10
56514;BME280;62152;52.078;8.414;2023-05-10T03:43:50;99265.53;;;19.92;53.01
56514;BME280;62152;52.078;8.414;2023-05-10T03:47:51;99273.00;;;19.92;52.59
56514;BME280;62152;52.078;8.414;2023-05-10T03:51:52;99272.59;;;19.90;52.69
56514;BME280;62152;52.078;8.414;2023-05-10T03:55:53;99271.03;;;19.89;52.74
56514;BME280;62152;52.078;8.414;2023-05-10T03:59:55;99269.06;;;19.89;52.96
56514;BME280;62152;52.078;8.414;2023-05-10T04:03:57;99283.75;;;19.58;53.98
56514;BME280;62152;52.078;8.414;2023-05-10T04:07:58;99284.63;;;19.16;55.00
56514;BME280;62152;52.078;8.414;2023-05-10T04:11:59;99293.97;;;19.39;54.38
56514;BME280;62152;52.078;8.414;2023-05-10T04:16:01;99297.50;;;19.65;53.99
56514;BME280;62152;52.078;8.414;2023-05-10T04:20:03;99297.84;;;19.78;52.91
56514;BME280;62152;52.078;8.414;2023-05-10T04:24:04;99300.97;;;19.83;52.73
56514;BME280;62152;52.078;8.414;2023-05-10T04:28:05;99306.47;;;19.83;52.83
56514;BME280;62152;52.078;8.414;2023-05-10T04:32:08;99304.88;;;19.86;52.96
56514;BME280;62152;52.078;8.414;2023-05-10T04:36:08;99315.88;;;19.86;53.23
56514;BME280;62152;52.078;8.414;2023-05-10T04:40:10;99324.16;;;19.86;53.17
56514;BME280;62152;52.078;8.414;2023-05-10T04:44:11;99323.75;;;19.87;52.77
56514;BME280;62152;52.078;8.414;2023-05-10T04:48:14;99331.22;;;19.87;52.60
56514;BME280;62152;52.078;8.414;2023-05-10T04:52:14;99332.00;;;19.87;52.67
56514;BME280;62152;52.078;8.414;2023-05-10T04:56:15;99336.72;;;19.87;52.76
56514;BME280;62152;52.078;8.414;2023-05-10T05:00:18;99346.13;;;19.89;52.33
56514;BME280;62152;52.078;8.414;2023-05-10T05:04:21;99338.28;;;19.88;52.46
56514;BME280;62152;52.078;8.414;2023-05-10T05:08:21;99350.84;;;19.89;53.12
56514;BME280;62152;52.078;8.414;2023-05-10T05:12:22;99354.38;;;19.89;52.97
56514;BME280;62152;52.078;8.414;2023-05-10T05:16:23;99361.06;;;19.88;52.64
56514;BME280;62152;52.078;8.414;2023-05-10T05:20:25;99365.41;;;19.89;52.39
56514;BME280;62152;52.078;8.414;2023-05-10T05:24:26;99370.91;;;19.89;52.81
56514;BME280;62152;52.078;8.414;2023-05-10T05:28:26;99378.38;;;19.89;52.90
56514;BME280;62152;52.078;8.414;2023-05-10T05:32:27;99374.84;;;19.88;52.76
56514;BME280;62152;52.078;8.414;2023-05-10T05:36:29;99384.66;;;19.89;53.05
56514;BME280;62152;52.078;8.414;2023-05-10T05:40:30;99391.75;;;19.90;52.40
56514;BME280;62152;52.078;8.414;2023-05-10T05:44:31;99393.69;;;19.90;52.21
56514;BME280;62152;52.078;8.414;2023-05-10T05:48:32;99402.34;;;19.88;52.30
56514;BME280;62152;52.078;8.414;2023-05-10T05:52:34;99407.47;;;19.90;51.95
56514;BME280;62152;52.078;8.414;2023-05-10T05:56:35;99407.47;;;19.90;52.84
56514;BME280;62152;52.078;8.414;2023-05-10T06:00:36;99412.97;;;19.90;52.94
56514;BME280;62152;52.078;8.414;2023-05-10T06:04:37;99416.53;;;19.90;52.79
56514;BME280;62152;52.078;8.414;2023-05-10T06:08:39;99420.06;;;19.91;52.43
56514;BME280;62152;52.078;8.414;2023-05-10T06:12:39;99428.69;;;19.89;52.65
56514;BME280;62152;52.078;8.414;2023-05-10T06:16:40;99430.28;;;19.90;52.36
56514;BME280;62152;52.078;8.414;2023-05-10T06:20:41;99433.03;;;19.90;52.70
56514;BME280;62152;52.078;8.414;2023-05-10T06:24:43;99444.44;;;19.92;52.03
56514;BME280;62152;52.078;8.414;2023-05-10T06:28:44;99453.47;;;19.93;52.62
56514;BME280;62152;52.078;8.414;2023-05-10T06:32:45;99451.13;;;19.91;52.71
56514;BME280;62152;52.078;8.414;2023-05-10T06:36:45;99454.66;;;19.92;52.20
56514;BME280;62152;52.078;8.414;2023-05-10T06:40:48;99450.34;;;19.91;52.12
56514;BME280;62152;52.078;8.414;2023-05-10T06:44:48;99457.81;;;19.90;52.36
56514;BME280;62152;52.078;8.414;2023-05-10T06:48:49;99452.31;;;19.90;52.73
56514;BME280;62152;52.078;8.414;2023-05-10T06:52:50;99459.38;;;19.91;51.95
56514;BME280;62152;52.078;8.414;2023-05-10T06:56:52;99465.66;;;19.92;52.57
56514;BME280;62152;52.078;8.414;2023-05-10T07:00:53;99466.44;;;19.92;51.72
56514;BME280;62152;52.078;8.414;2023-05-10T07:04:54;99472.72;;;19.93;52.01
56514;BME280;62152;52.078;8.414;2023-05-10T07:08:55;99482.97;;;19.92;52.14
56514;BME280;62152;52.078;8.414;2023-05-10T07:12:57;99490.03;;;19.93;52.31
56514;BME280;62152;52.078;8.414;2023-05-10T07:16:58;99479.03;;;19.93;51.75
56514;BME280;62152;52.078;8.414;2023-05-10T07:20:59;99483.75;;;19.93;51.92
56514;BME280;62152;52.078;8.414;2023-05-10T07:24:59;99486.91;;;19.91;52.27
56514;BME280;62152;52.078;8.414;2023-05-10T07:29:02;99489.25;;;19.93;52.19
56514;BME280;62152;52.078;8.414;2023-05-10T07:33:03;99492.78;;;19.93;52.02
56514;BME280;62152;52.078;8.414;2023-05-10T07:37:03;99490.81;;;19.94;51.79
56514;BME280;62152;52.078;8.414;2023-05-10T07:41:04;99499.06;;;19.94;52.19
56514;BME280;62152;52.078;8.414;2023-05-10T07:45:08;99491.97;;;19.97;51.54
56514;BME280;62152;52.078;8.414;2023-05-10T07:49:09;99499.06;;;19.94;52.30
56514;BME280;62152;52.078;8.414;2023-05-10T07:53:10;99513.63;;;19.94;52.10
56514;BME280;62152;52.078;8.414;2023-05-10T07:57:10;99502.59;;;19.94;51.51
56514;BME280;62152;52.078;8.414;2023-05-10T08:01:12;99503.78;;;19.93;51.92
56514;BME280;62152;52.078;8.414;2023-05-10T08:05:13;99502.59;;;19.94;52.26
56514;BME280;62152;52.078;8.414;2023-05-10T08:09:16;99502.59;;;19.94;52.16
56514;BME280;62152;52.078;8.414;2023-05-10T08:13:16;99502.59;;;19.94;52.06
56514;BME280;62152;52.078;8.414;2023-05-10T08:17:18;99507.72;;;19.96;52.18
56514;BME280;62152;52.078;8.414;2023-05-10T08:21:19;99517.16;;;19.99;51.92
56514;BME280;62152;52.078;8.414;2023-05-10T08:25:20;99527.75;;;19.97;52.24
56514;BME280;62152;52.078;8.414;2023-05-10T08:29:20;99527.75;;;19.97;51.70
56514;BME280;62152;52.078;8.414;2023-05-10T08:33:23;99519.91;;;19.99;51.43
56514;BME280;62152;52.078;8.414;2023-05-10T08:37:23;99524.63;;;19.98;51.41
56514;BME280;62152;52.078;8.414;2023-05-10T08:41:24;99525.00;;;19.97;51.40
56514;BME280;62152;52.078;8.414;2023-05-10T08:45:31;99532.88;;;19.94;51.76
56514;BME280;62152;52.078;8.414;2023-05-10T08:49:34;99531.69;;;19.95;51.50
56514;BME280;62152;52.078;8.414;2023-05-10T08:53:37;99536.41;;;19.95;51.36
56514;BME280;62152;52.078;8.414;2023-05-10T08:57:39;99543.88;;;19.94;52.00
56514;BME280;62152;52.078;8.414;2023-05-10T09:01:42;99547.03;;;19.97;51.90
56514;BME280;62152;52.078;8.414;2023-05-10T09:05:46;99551.38;;;19.98;52.09
56514;BME280;62152;52.078;8.414;2023-05-10T09:09:48;99565.13;;;19.98;51.28
56514;BME280;62152;52.078;8.414;2023-05-10T09:13:51;99564.34;;;20.01;51.79
56514;BME280;62152;52.078;8.414;2023-05-10T09:17:54;99560.00;;;20.03;51.71
56514;BME280;62152;52.078;8.414;2023-05-10T09:21:56;99560.00;;;20.07;51.48
56514;BME280;62152;52.078;8.414;2023-05-10T09:26:03;99550.97;;;20.06;51.62
56514;BME280;62152;52.078;8.414;2023-05-10T09:30:06;99563.16;;;20.09;51.61
56514;BME280;62152;52.078;8.414;2023-05-10T09:34:08;99574.16;;;20.09;51.75
56514;BME280;62152;52.078;8.414;2023-05-10T09:38:10;99574.16;;;20.09;51.63
56514;BME280;62152;52.078;8.414;2023-05-10T09:42:11;99581.63;;;20.08;51.61
56514;BME280;62152;52.078;8.414;2023-05-10T09:46:12;99576.53;;;20.07;51.78
56514;BME280;62152;52.078;8.414;2023-05-10T09:50:13;99580.84;;;20.08;51.69
56514;BME280;62152;52.078;8.414;2023-05-10T09:54:16;99576.91;;;20.09;51.07
56514;BME280;62152;52.078;8.414;2023-05-10T09:58:17;99578.47;;;20.10;51.02
56514;BME280;62152;52.078;8.414;2023-05-10T10:02:18;99578.09;;;20.11;51.57
56514;BME280;62152;52.078;8.414;2023-05-10T10:06:20;99577.72;;;20.13;51.42
56514;BME280;62152;52.078;8.414;2023-05-10T10:10:22;99578.88;;;20.12;51.23
56514;BME280;62152;52.078;8.414;2023-05-10T10:14:24;99582.03;;;20.14;51.34
56514;BME280;62152;52.078;8.414;2023-05-10T10:18:24;99579.66;;;20.16;50.92
56514;BME280;62152;52.078;8.414;2023-05-10T10:22:26;99567.84;;;20.15;50.86
56514;BME280;62152;52.078;8.414;2023-05-10T10:26:28;99571.00;;;20.14;51.02
56514;BME280;62152;52.078;8.414;2023-05-10T10:30:35;99579.66;;;20.16;51.09
56514;BME280;62152;52.078;8.414;2023-05-10T10:34:40;99571.00;;;20.14;51.35
56514;BME280;62152;52.078;8.414;2023-05-10T10:39:01;99576.13;;;20.12;50.92
56514;BME280;62152;52.078;8.414;2023-05-10T10:43:22;99572.97;;;20.17;51.14
56514;BME280;62152;52.078;8.414;2023-05-10T10:47:24;99569.06;;;20.18;50.91
56514;BME280;62152;52.078;8.414;2023-05-10T10:51:28;99574.16;;;20.16;51.00
56514;BME280;62152;52.078;8.414;2023-05-10T10:55:29;99566.69;;;20.20;51.06
56514;BME280;62152;52.078;8.414;2023-05-10T10:59:31;99571.00;;;20.21;50.79
56514;BME280;62152;52.078;8.414;2023-05-10T11:03:32;99572.19;;;20.20;51.02
56514;BME280;62152;52.078;8.414;2023-05-10T11:07:33;99578.88;;;20.19;51.27
56514;BME280;62152;52.078;8.414;2023-05-10T11:11:34;99585.97;;;20.20;51.23
56514;BME280;62152;52.078;8.414;2023-05-10T11:15:39;99574.16;;;20.16;51.21
56514;BME280;62152;52.078;8.414;2023-05-10T11:20:06;99585.97;;;20.20;51.45
56514;BME280;62152;52.078;8.414;2023-05-10T11:24:14;99582.03;;;20.21;50.90
56514;BME280;62152;52.078;8.414;2023-05-10T11:28:17;99593.03;;;20.21;51.13
56514;BME280;62152;52.078;8.414;2023-05-10T11:32:21;99584.38;;;20.22;51.44
56514;BME280;62152;52.078;8.414;2023-05-10T11:36:24;99586.72;;;20.24;51.19
56514;BME280;62152;52.078;8.414;2023-05-10T11:40:26;99577.28;;;20.21;50.93
56514;BME280;62152;52.078;8.414;2023-05-10T11:44:29;99591.44;;;20.23;50.84
56514;BME280;62152;52.078;8.414;2023-05-10T11:48:32;99586.72;;;20.28;51.00
56514;BME280;62152;52.078;8.414;2023-05-10T11:52:35;99593.03;;;20.28;50.67
56514;BME280;62152;52.078;8.414;2023-05-10T11:56:37;99597.34;;;20.33;50.77
56514;BME280;62152;52.078;8.414;2023-05-10T12:00:38;99595.78;;;20.28;50.61
56514;BME280;62152;52.078;8.414;2023-05-10T12:04:41;99600.13;;;20.26;51.26
56514;BME280;62152;52.078;8.414;2023-05-10T12:08:45;99599.34;;;20.25;50.53
56514;BME280;62152;52.078;8.414;2023-05-10T12:12:47;99596.97;;;20.27;50.95
56514;BME280;62152;52.078;8.414;2023-05-10T12:16:48;99601.28;;;20.28;50.87
56514;BME280;62152;52.078;8.414;2023-05-10T12:20:52;99598.53;;;20.28;51.08
56514;BME280;62152;52.078;8.414;2023-05-10T12:24:53;99596.19;;;20.27;51.15
56514;BME280;62152;52.078;8.414;2023-05-10T12:28:53;99605.63;;;20.26;51.03
56514;BME280;62152;52.078;8.414;2023-05-10T12:33:00;99619.41;;;20.26;51.37
56514;BME280;62152;52.078;8.414;2023-05-10T12:37:04;99616.63;;;20.26;50.65
56514;BME280;62152;52.078;8.414;2023-05-10T12:41:07;99617.81;;;20.25;51.34
56514;BME280;62152;52.078;8.414;2023-05-10T12:45:09;99612.69;;;20.27;51.03
56514;BME280;62152;52.078;8.414;2023-05-10T12:49:11;99616.22;;;20.31;50.41
56514;BME280;62152;52.078;8.414;2023-05-10T12:53:14;99617.41;;;20.33;50.79
56514;BME280;62152;52.078;8.414;2023-05-10T12:57:16;99626.47;;;20.34;51.10
56514;BME280;62152;52.078;8.414;2023-05-10T13:01:17;99625.28;;;20.31;50.61
56514;BME280;62152;52.078;8.414;2023-05-10T13:05:18;99634.72;;;20.30;50.93
56514;BME280;62152;52.078;8.414;2023-05-10T13:09:20;99631.56;;;20.28;50.61
56514;BME280;62152;52.078;8.414;2023-05-10T13:13:21;99635.91;;;20.26;50.89
56514;BME280;62152;52.078;8.414;2023-05-10T13:17:22;99641.78;;;20.24;50.91
56514;BME280;62152;52.078;8.414;2023-05-10T13:21:23;99652.44;;;20.22;51.20
56514;BME280;62152;52.078;8.414;2023-05-10T13:25:25;99658.72;;;20.19;51.23
56514;BME280;62152;52.078;8.414;2023-05-10T13:29:26;99664.25;;;20.19;50.97
56514;BME280;62152;52.078;8.414;2023-05-10T13:33:27;99672.50;;;20.19;51.25
56514;BME280;62152;52.078;8.414;2023-05-10T13:37:28;99683.50;;;20.19;50.88
56514;BME280;62152;52.078;8.414;2023-05-10T13:41:30;99684.69;;;20.18;50.73
56514;BME280;62152;52.078;8.414;2023-05-10T13:45:31;99693.75;;;20.18;50.84
56514;BME280;62152;52.078;8.414;2023-05-10T13:49:32;99683.91;;;20.21;50.79
56514;BME280;62152;52.078;8.414;2023-05-10T13:53:33;99679.56;;;20.20;51.01
56514;BME280;62152;52.078;8.414;2023-05-10T13:57:35;99677.22;;;20.22;51.06
56514;BME280;62152;52.078;8.414;2023-05-10T14:01:36;99676.03;;;20.23;51.33
56514;BME280;62152;52.078;8.414;2023-05-10T14:05:37;99680.34;;;20.24;50.58
56514;BME280;62152;52.078;8.414;2023-05-10T14:09:37;99676.44;;;20.25;50.75
56514;BME280;62152;52.078;8.414;2023-05-10T14:13:40;99673.69;;;20.25;51.26
56514;BME280;62152;52.078;8.414;2023-05-10T14:17:41;99676.03;;;20.27;50.88
56514;BME280;62152;52.078;8.414;2023-05-10T14:21:41;99674.06;;;20.27;50.71
56514;BME280;62152;52.078;8.414;2023-05-10T14:25:42;99684.31;;;20.27;50.62
56514;BME280;62152;52.078;8.414;2023-05-10T14:29:44;99680.38;;;20.28;50.70
56514;BME280;62152;52.078;8.414;2023-05-10T14:33:45;99684.69;;;20.25;51.23
56514;BME280;62152;52.078;8.414;2023-05-10T14:37:46;99690.56;;;20.23;51.21
56514;BME280;62152;52.078;8.414;2023-05-10T14:41:47;99679.97;;;20.15;51.01
56514;BME280;62152;52.078;8.414;2023-05-10T14:45:49;99682.28;;;19.88;54.50
56514;BME280;62152;52.078;8.414;2023-05-10T14:49:50;99694.03;;;19.63;54.57
56514;BME280;62152;52.078;8.414;2023-05-10T14:53:51;99696.75;;;19.60;54.45
56514;BME280;62152;52.078;8.414;2023-05-10T14:57:51;99690.50;;;19.63;53.95
56514;BME280;62152;52.078;8.414;2023-05-10T15:01:54;99683.84;;;19.85;53.21
56514;BME280;62152;52.078;8.414;2023-05-10T15:05:54;99675.22;;;19.94;52.96
56514;BME280;62152;52.078;8.414;2023-05-10T15:09:55;99688.97;;;19.94;53.49
56514;BME280;62152;52.078;8.414;2023-05-10T15:13:56;99685.81;;;19.95;53.07
56514;BME280;62152;52.078;8.414;2023-05-10T15:17:58;99693.72;;;20.04;53.17
56514;BME280;62152;52.078;8.414;2023-05-10T15:21:59;99695.28;;;20.05;53.28
56514;BME280;62152;52.078;8.414;2023-05-10T15:26:00;99709.06;;;20.05;52.63
56514;BME280;62152;52.078;8.414;2023-05-10T15:30:01;99710.25;;;20.04;52.89
56514;BME280;62152;52.078;8.414;2023-05-10T15:34:03;99711.78;;;20.02;53.24
56514;BME280;62152;52.078;8.414;2023-05-10T15:38:04;99714.56;;;20.02;53.10
56514;BME280;62152;52.078;8.414;2023-05-10T15:42:05;99718.47;;;20.01;52.96
56514;BME280;62152;52.078;8.414;2023-05-10T15:46:06;99724.38;;;19.95;53.20
56514;BME280;62152;52.078;8.414;2023-05-10T15:50:09;99728.28;;;19.87;53.11
56514;BME280;62152;52.078;8.414;2023-05-10T15:54:10;99736.94;;;19.97;53.44
56514;BME280;62152;52.078;8.414;2023-05-10T15:58:11;99740.91;;;20.03;53.05
56514;BME280;62152;52.078;8.414;2023-05-10T16:02:11;99747.19;;;20.03;53.24
56514;BME280;62152;52.078;8.414;2023-05-10T16:06:14;99748.78;;;20.04;53.30
56514;BME280;62152;52.078;8.414;2023-05-10T16:10:14;99735.81;;;20.05;52.67
56514;BME280;62152;52.078;8.414;2023-05-10T16:14:15;99741.69;;;20.07;52.62
56514;BME280;62152;52.078;8.414;2023-05-10T16:18:16;99745.63;;;20.06;53.13
56514;BME280;62152;52.078;8.414;2023-05-10T16:22:18;99757.44;;;20.06;52.99
56514;BME280;62152;52.078;8.414;2023-05-10T16:26:19;99749.56;;;19.98;53.10
56514;BME280;62152;52.078;8.414;2023-05-10T16:30:20;99764.88;;;19.99;52.49
56514;BME280;62152;52.078;8.414;2023-05-10T16:34:21;99764.88;;;20.02;53.16
56514;BME280;62152;52.078;8.414;2023-05-10T16:38:23;99770.00;;;20.04;52.41
56514;BME280;62152;52.078;8.414;2023-05-10T16:42:24;99781.00;;;20.04;52.67
56514;BME280;62152;52.078;8.414;2023-05-10T16:46:24;99777.09;;;20.05;52.85
56514;BME280;62152;52.078;8.414;2023-05-10T16:50:25;99777.09;;;20.05;52.99
56514;BME280;62152;52.078;8.414;2023-05-10T16:54:28;99773.56;;;20.04;52.93
56514;BME280;62152;52.078;8.414;2023-05-10T16:58:29;99783.00;;;20.07;53.10
56514;BME280;62152;52.078;8.414;2023-05-10T17:02:30;99783.38;;;20.05;52.68
56514;BME280;62152;52.078;8.414;2023-05-10T17:06:30;99784.56;;;20.04;52.89
56514;BME280;62152;52.078;8.414;2023-05-10T17:10:33;99789.69;;;20.06;52.83
56514;BME280;62152;52.078;8.414;2023-05-10T17:14:35;99777.09;;;20.05;52.47
56514;BME280;62152;52.078;8.414;2023-05-10T17:18:36;99778.66;;;20.06;52.75
56514;BME280;62152;52.078;8.414;2023-05-10T17:22:37;99777.09;;;20.05;53.24
56514;BME280;62152;52.078;8.414;2023-05-10T17:26:40;99786.50;;;20.04;53.02
56514;BME280;62152;52.078;8.414;2023-05-10T17:30:41;99793.19;;;20.03;53.09
56514;BME280;62152;52.078;8.414;2023-05-10T17:34:42;99793.19;;;20.03;53.37
56514;BME280;62152;52.078;8.414;2023-05-10T17:38:43;99810.50;;;20.03;53.18
56514;BME280;62152;52.078;8.414;2023-05-10T17:42:45;99818.41;;;20.05;54.11
56514;BME280;62152;52.078;8.414;2023-05-10T17:46:46;99819.19;;;20.05;53.95
56514;BME280;62152;52.078;8.414;2023-05-10T17:50:48;99806.59;;;20.04;53.84
56514;BME280;62152;52.078;8.414;2023-05-10T17:54:49;99821.16;;;20.05;54.43
56514;BME280;62152;52.078;8.414;2023-05-10T17:58:51;99822.72;;;20.06;53.31
56514;BME280;62152;52.078;8.414;2023-05-10T18:02:52;99829.41;;;20.05;54.04
56514;BME280;62152;52.078;8.414;2023-05-10T18:06:53;99830.97;;;20.06;53.51
56514;BME280;62152;52.078;8.414;2023-05-10T18:10:53;99843.16;;;20.05;53.89
56514;BME280;62152;52.078;8.414;2023-05-10T18:14:56;99842.38;;;20.04;53.51
56514;BME280;62152;52.078;8.414;2023-05-10T18:18:57;99852.59;;;20.04;53.79
56514;BME280;62152;52.078;8.414;2023-05-10T18:22:57;99859.69;;;20.05;53.54
56514;BME280;62152;52.078;8.414;2023-05-10T18:26:58;99865.19;;;20.05;53.98
56514;BME280;62152;52.078;8.414;2023-05-10T18:31:00;99861.66;;;20.04;53.44
56514;BME280;62152;52.078;8.414;2023-05-10T18:35:01;99869.09;;;20.04;53.46
56514;BME280;62152;52.078;8.414;2023-05-10T18:39:02;99869.09;;;20.04;53.44
56514;BME280;62152;52.078;8.414;2023-05-10T18:43:03;99875.41;;;20.04;53.67
56514;BME280;62152;52.078;8.414;2023-05-10T18:47:05;99882.06;;;20.03;53.44
56514;BME280;62152;52.078;8.414;2023-05-10T18:51:06;99882.47;;;20.02;54.23
56514;BME280;62152;52.078;8.414;2023-05-10T18:55:07;99884.81;;;20.03;53.46
56514;BME280;62152;52.078;8.414;2023-05-10T18:59:08;99876.56;;;20.03;53.49
56514;BME280;62152;52.078;8.414;2023-05-10T19:03:11;99877.34;;;20.04;54.14
56514;BME280;62152;52.078;8.414;2023-05-10T19:07:11;99878.97;;;20.05;53.91
56514;BME280;62152;52.078;8.414;2023-05-10T19:11:12;99880.09;;;20.04;53.92
56514;BME280;62152;52.078;8.414;2023-05-10T19:15:13;99885.63;;;20.04;54.01
56514;BME280;62152;52.078;8.414;2023-05-10T19:19:15;99879.31;;;20.03;54.00
56514;BME280;62152;52.078;8.414;2023-05-10T19:23:16;99887.59;;;20.03;53.53
56514;BME280;62152;52.078;8.414;2023-05-10T19:27:17;99889.53;;;20.03;53.83
56514;BME280;62152;52.078;8.414;2023-05-10T19:31:18;99895.06;;;20.03;53.33
56514;BME280;62152;52.078;8.414;2023-05-10T19:35:20;99893.47;;;20.02;53.85
56514;BME280;62152;52.078;8.414;2023-05-10T19:39:23;99898.59;;;20.03;53.89
56514;BME280;62152;52.078;8.414;2023-05-10T19:43:23;99901.75;;;20.02;53.67
56514;BME280;62152;52.078;8.414;2023-05-10T19:47:24;99887.97;;;20.02;53.17
56514;BME280;62152;52.078;8.414;2023-05-10T19:51:26;99898.97;;;20.02;53.82
56514;BME280;62152;52.078;8.414;2023-05-10T19:55:28;99898.97;;;20.02;53.62
56514;BME280;62152;52.078;8.414;2023-05-10T19:59:30;99893.47;;;20.02;53.68
56514;BME280;62152;52.078;8.414;2023-05-10T20:03:31;99897.41;;;20.01;54.02
56514;BME280;62152;52.078;8.414;2023-05-10T20:07:35;99897.41;;;20.01;54.04
56514;BME280;62152;52.078;8.414;2023-05-10T20:11:36;99891.91;;;20.01;53.58
56514;BME280;62152;52.078;8.414;2023-05-10T20:15:37;99894.66;;;20.01;53.93
56514;BME280;62152;52.078;8.414;2023-05-10T20:27:40;99881.28;;;19.99;53.60
56514;BME280;62152;52.078;8.414;2023-05-10T20:31:41;99883.25;;;19.99;53.36
56514;BME280;62152;52.078;8.414;2023-05-10T20:35:42;99888.75;;;19.99;53.14
56514;BME280;62152;52.078;8.414;2023-05-10T20:39:45;99883.25;;;19.99;53.36
56514;BME280;62152;52.078;8.414;2023-05-10T20:43:45;99887.97;;;19.98;53.36
56514;BME280;62152;52.078;8.414;2023-05-10T20:47:46;99892.69;;;19.98;53.59
56514;BME280;62152;52.078;8.414;2023-05-10T20:51:47;99889.94;;;19.98;53.21
56514;BME280;62152;52.078;8.414;2023-05-10T20:55:49;99895.44;;;19.98;53.37
56514;BME280;62152;52.078;8.414;2023-05-10T20:59:51;99892.69;;;19.98;53.42
56514;BME280;62152;52.078;8.414;2023-05-10T21:03:52;99905.66;;;19.97;53.13
56514;BME280;62152;52.078;8.414;2023-05-10T21:07:53;99906.47;;;19.98;53.69
56514;BME280;62152;52.078;8.414;2023-05-10T21:11:56;99916.69;;;19.97;52.68
56514;BME280;62152;52.078;8.414;2023-05-10T21:15:57;99908.78;;;19.95;52.94
56514;BME280;62152;52.078;8.414;2023-05-10T21:19:58;99917.81;;;19.96;53.04
56514;BME280;62152;52.078;8.414;2023-05-10T21:23:58;99917.03;;;19.95;53.24
56514;BME280;62152;52.078;8.414;2023-05-10T21:28:01;99911.53;;;19.95;52.98
56514;BME280;62152;52.078;8.414;2023-05-10T21:32:01;99915.84;;;19.97;52.86